Time;durP1;ratioP1;P1;durP2;ratioP2;P2;SDS_P1;SDS_P2;PMS_P1;PMS_P2;Temp;Humidity;BMP_temperature;BMP_pressure;BME280_temperature;BME280_humidity;BME280_pressure;Samples;Min_cycle;Max_cycle;Signal;HPM_P1;HPM_P2
2021/03/18 00:00:54;;;;;;;25.80;10.43;;;3.20;99.90;;;;;;5078345;28;20475;-73
2021/03/18 00:03:25;;;;;;;37.25;11.35;;;3.20;99.90;;;;;;5076035;28;20021;-75
2021/03/18 00:05:52;;;;;;;27.40;10.23;;;3.20;99.90;;;;;;5078919;28;20540;-75
2021/03/18 00:08:19;;;;;;;39.55;11.35;;;3.20;99.90;;;;;;5077673;28;20048;-74
2021/03/18 00:10:45;;;;;;;23.25;9.13;;;3.10;99.90;;;;;;5072456;28;20056;-74
2021/03/18 00:13:12;;;;;;;21.42;9.10;;;3.10;99.90;;;;;;5075567;28;20053;-73
2021/03/18 00:15:38;;;;;;;28.48;9.82;;;3.10;99.90;;;;;;5078158;28;20822;-73
2021/03/18 00:18:09;;;;;;;25.25;9.02;;;3.20;99.90;;;;;;5071893;28;20104;-73
2021/03/18 00:20:35;;;;;;;33.08;10.20;;;3.30;99.90;;;;;;5073589;28;20032;-73
2021/03/18 00:23:02;;;;;;;27.67;10.23;;;3.30;99.90;;;;;;5076743;28;20032;-74
2021/03/18 00:25:28;;;;;;;19.73;8.13;;;3.30;99.90;;;;;;5077690;28;20052;-76
2021/03/18 00:27:53;;;;;;;19.23;8.52;;;3.30;99.90;;;;;;5071670;28;20025;-74
2021/03/18 00:30:20;;;;;;;22.02;8.85;;;3.40;99.90;;;;;;5078985;28;20036;-75
2021/03/18 00:32:47;;;;;;;24.33;9.05;;;3.30;99.90;;;;;;5072700;28;20132;-75
2021/03/18 00:35:14;;;;;;;22.90;8.48;;;3.20;99.90;;;;;;5078106;28;20035;-74
2021/03/18 00:37:42;;;;;;;23.70;9.50;;;3.30;99.90;;;;;;5078276;28;20029;-75
2021/03/18 00:40:30;;;;;;;24.70;8.95;;;3.30;99.90;;;;;;5076020;28;20048;-74
2021/03/18 00:43:08;;;;;;;14.32;7.35;;;3.30;99.90;;;;;;5076058;28;20023;-74
2021/03/18 00:45:36;;;;;;;24.58;8.48;;;3.30;99.90;;;;;;5076459;28;20497;-74
2021/03/18 00:48:03;;;;;;;18.38;8.43;;;3.30;99.90;;;;;;5077032;28;20035;-74
2021/03/18 00:50:39;;;;;;;18.25;7.28;;;3.30;99.90;;;;;;5078626;28;20028;-75
2021/03/18 00:53:07;;;;;;;21.23;7.70;;;3.20;99.90;;;;;;5073994;28;20017;-75
2021/03/18 00:55:33;;;;;;;24.25;7.43;;;3.20;99.90;;;;;;5072173;28;20135;-74
2021/03/18 00:57:59;;;;;;;15.63;6.30;;;3.20;99.90;;;;;;5075497;28;20029;-75
2021/03/18 01:00:34;;;;;;;21.13;6.30;;;3.20;99.90;;;;;;5073959;28;20121;-75
2021/03/18 01:03:00;;;;;;;13.82;5.88;;;3.20;99.90;;;;;;5076567;28;20029;-75
2021/03/18 01:05:30;;;;;;;12.80;5.95;;;3.20;99.90;;;;;;5096772;28;20055;-75
2021/03/18 01:08:00;;;;;;;44.53;6.22;;;3.20;99.90;;;;;;5078076;28;20029;-74
2021/03/18 01:10:28;;;;;;;16.90;6.25;;;3.20;99.90;;;;;;5073521;28;20036;-75
2021/03/18 01:12:54;;;;;;;16.38;4.82;;;3.10;99.90;;;;;;5076149;28;20060;-74
2021/03/18 01:15:24;;;;;;;15.00;5.10;;;3.10;99.90;;;;;;5076889;28;20040;-74
2021/03/18 01:17:49;;;;;;;8.75;3.47;;;2.90;99.90;;;;;;5073818;28;20025;-75
2021/03/18 01:20:16;;;;;;;26.50;5.13;;;2.80;99.90;;;;;;5074484;28;20036;-74
2021/03/18 01:22:42;;;;;;;15.85;6.63;;;2.70;99.90;;;;;;5076600;28;20029;-74
2021/03/18 01:25:09;;;;;;;13.10;4.50;;;2.60;99.90;;;;;;5078023;28;20034;-73
2021/03/18 01:27:35;;;;;;;16.33;5.35;;;2.60;99.90;;;;;;5070835;28;20487;-73
2021/03/18 01:30:01;;;;;;;15.18;5.50;;;2.60;99.90;;;;;;5074380;28;20037;-74
2021/03/18 01:32:27;;;;;;;11.23;4.15;;;2.60;99.90;;;;;;5075302;28;20087;-76
2021/03/18 01:34:52;;;;;;;16.95;5.85;;;2.60;99.90;;;;;;5079160;28;20127;-73
2021/03/18 01:37:18;;;;;;;11.57;5.05;;;2.70;99.90;;;;;;5080984;28;20492;-74
2021/03/18 01:39:43;;;;;;;11.27;4.57;;;2.70;99.90;;;;;;5081164;28;20024;-75
2021/03/18 01:42:09;;;;;;;11.48;4.30;;;2.70;99.90;;;;;;5079601;28;20017;-74
2021/03/18 01:44:35;;;;;;;12.68;5.78;;;2.50;99.90;;;;;;5079453;28;20054;-73
2021/03/18 01:47:00;;;;;;;12.13;4.88;;;2.50;99.90;;;;;;5081768;28;20032;-74
2021/03/18 01:49:26;;;;;;;8.13;4.13;;;2.40;99.90;;;;;;5080852;28;20036;-75
2021/03/18 01:51:52;;;;;;;27.73;5.35;;;2.40;99.90;;;;;;5080578;28;20036;-74
2021/03/18 01:54:18;;;;;;;11.05;4.72;;;2.40;99.90;;;;;;5079114;28;20791;-73
2021/03/18 01:56:44;;;;;;;10.60;4.10;;;2.30;99.90;;;;;;5080218;28;20476;-75
2021/03/18 01:59:09;;;;;;;11.80;4.32;;;2.30;99.90;;;;;;5079571;28;20040;-72
2021/03/18 02:01:35;;;;;;;10.85;4.65;;;2.30;99.90;;;;;;5079924;28;20487;-73
2021/03/18 02:04:03;;;;;;;12.60;4.43;;;2.30;99.90;;;;;;5075703;28;20114;-74
2021/03/18 02:06:29;;;;;;;10.35;3.75;;;2.40;99.90;;;;;;5081185;28;20027;-73
2021/03/18 02:08:55;;;;;;;12.27;3.45;;;2.40;99.90;;;;;;5105260;28;20027;-75
2021/03/18 02:11:20;;;;;;;10.18;4.50;;;2.40;99.90;;;;;;5079371;28;20036;-73
2021/03/18 02:13:46;;;;;;;6.22;3.15;;;2.40;99.90;;;;;;5077059;28;20064;-74
2021/03/18 02:16:13;;;;;;;10.32;4.05;;;2.30;99.90;;;;;;5079433;28;20036;-74
2021/03/18 02:18:57;;;;;;;5.45;2.65;;;2.20;99.90;;;;;;5075744;28;20028;-74
2021/03/18 02:21:23;;;;;;;14.77;5.35;;;2.10;99.90;;;;;;5078418;28;20037;-73
2021/03/18 02:24:01;;;;;;;12.07;5.03;;;2.00;99.90;;;;;;5080984;28;20116;-73
2021/03/18 02:27:18;;;;;;;7.53;2.97;;;2.00;99.90;;;;;;5079700;28;20031;-75
2021/03/18 02:30:05;;;;;;;11.52;4.18;;;2.00;99.90;;;;;;5059386;28;20152;-75
2021/03/18 02:33:08;;;;;;;8.98;4.10;;;2.00;99.90;;;;;;5081960;28;20025;-74
2021/03/18 02:35:40;;;;;;;16.35;4.47;;;2.10;99.90;;;;;;5078192;28;20067;-74
2021/03/18 02:38:23;;;;;;;17.27;4.47;;;2.00;99.90;;;;;;5077312;28;20029;-74
2021/03/18 02:40:57;;;;;;;8.07;2.83;;;2.10;99.90;;;;;;5078684;28;20368;-73
2021/03/18 02:43:25;;;;;;;5.45;3.30;;;2.20;99.90;;;;;;5076928;28;20039;-74
2021/03/18 02:45:55;;;;;;;11.00;3.95;;;2.20;99.90;;;;;;5078840;28;20021;-73
2021/03/18 02:48:31;;;;;;;8.35;3.72;;;2.20;99.90;;;;;;5079364;28;21031;-74
2021/03/18 02:50:57;;;;;;;10.48;4.00;;;2.30;99.90;;;;;;5078084;28;20052;-75
2021/03/18 02:53:26;;;;;;;7.70;3.05;;;2.20;99.90;;;;;;5077106;28;20124;-75
2021/03/18 02:55:53;;;;;;;12.40;3.65;;;2.20;99.90;;;;;;5080564;28;20066;-74
2021/03/18 02:58:22;;;;;;;23.52;3.75;;;2.30;99.90;;;;;;5076225;28;20158;-73
2021/03/18 03:00:50;;;;;;;8.07;3.83;;;2.30;99.90;;;;;;5076189;28;20500;-74
2021/03/18 03:03:17;;;;;;;9.75;3.85;;;2.30;99.90;;;;;;5073720;28;20028;-75
2021/03/18 03:05:46;;;;;;;6.55;3.55;;;2.30;99.90;;;;;;5079205;28;20029;-73
2021/03/18 03:08:13;;;;;;;16.75;5.68;;;2.20;99.90;;;;;;5076388;28;20385;-75
2021/03/18 03:10:40;;;;;;;10.38;4.65;;;2.20;99.90;;;;;;5079597;28;20580;-74
2021/03/18 03:13:07;;;;;;;10.77;4.43;;;2.20;99.90;;;;;;5077585;28;20051;-74
2021/03/18 03:15:33;;;;;;;26.20;5.05;;;2.20;99.90;;;;;;5077327;28;20047;-73
2021/03/18 03:18:04;;;;;;;11.93;4.38;;;2.10;99.90;;;;;;5076301;28;20047;-73
2021/03/18 03:20:30;;;;;;;32.60;4.80;;;2.10;99.90;;;;;;5077380;28;20033;-73
2021/03/18 03:22:58;;;;;;;12.27;5.07;;;2.20;99.90;;;;;;5074986;28;20036;-73
2021/03/18 03:25:25;;;;;;;12.88;3.53;;;2.20;99.90;;;;;;5080345;28;20108;-74
2021/03/18 03:27:51;;;;;;;14.68;4.68;;;2.20;99.90;;;;;;5079507;28;20016;-75
2021/03/18 03:30:17;;;;;;;11.32;3.92;;;2.20;99.90;;;;;;5079736;28;20165;-73
2021/03/18 03:32:45;;;;;;;13.57;4.45;;;2.10;99.90;;;;;;5074456;28;20028;-74
2021/03/18 03:35:11;;;;;;;11.05;5.57;;;2.00;99.90;;;;;;5077142;28;20091;-75
2021/03/18 03:37:39;;;;;;;10.93;4.90;;;2.10;99.90;;;;;;5076729;28;20021;-73
2021/03/18 03:40:08;;;;;;;9.45;3.60;;;2.00;99.90;;;;;;5076574;28;20020;-74
2021/03/18 03:42:34;;;;;;;15.07;4.10;;;2.00;99.90;;;;;;5077410;28;20056;-74
2021/03/18 03:45:00;;;;;;;7.95;2.80;;;1.90;99.90;;;;;;5076066;28;20060;-73
2021/03/18 03:47:26;;;;;;;14.35;3.72;;;1.80;99.90;;;;;;5080018;28;20129;-73
2021/03/18 03:49:52;;;;;;;10.43;4.60;;;1.70;99.90;;;;;;5078572;28;20028;-73
2021/03/18 03:52:31;;;;;;;14.30;4.43;;;1.90;99.90;;;;;;5075968;28;20088;-74
2021/03/18 03:55:03;;;;;;;12.02;4.25;;;1.80;99.90;;;;;;5078690;28;20044;-75
2021/03/18 03:57:38;;;;;;;6.93;3.55;;;1.80;99.90;;;;;;5078719;28;20048;-73
2021/03/18 04:00:07;;;;;;;7.35;3.13;;;1.80;99.90;;;;;;5074463;28;20024;-75
2021/03/18 04:02:35;;;;;;;24.20;5.55;;;1.80;99.90;;;;;;5073277;28;20492;-75
2021/03/18 04:05:02;;;;;;;19.77;4.90;;;1.80;99.90;;;;;;5078760;28;20025;-74
2021/03/18 04:07:35;;;;;;;21.05;4.60;;;1.80;99.90;;;;;;5077641;28;20062;-75
2021/03/18 04:10:02;;;;;;;8.32;3.78;;;1.80;99.90;;;;;;5075424;28;20028;-75
2021/03/18 04:12:35;;;;;;;12.85;4.30;;;1.90;99.90;;;;;;5078532;28;20052;-75
2021/03/18 04:15:14;;;;;;;17.05;4.95;;;1.90;99.90;;;;;;5076329;28;20040;-76
2021/03/18 04:17:43;;;;;;;19.30;6.03;;;1.80;99.90;;;;;;5075806;28;20055;-74
2021/03/18 04:20:11;;;;;;;12.15;4.15;;;1.90;99.90;;;;;;5077397;28;20025;-74
2021/03/18 04:22:39;;;;;;;10.93;4.75;;;1.90;99.90;;;;;;5076178;28;20032;-74
2021/03/18 04:25:06;;;;;;;14.05;5.50;;;1.90;99.90;;;;;;5077730;28;20032;-75
2021/03/18 04:27:34;;;;;;;13.32;5.68;;;1.90;99.90;;;;;;5076611;28;20025;-75
2021/03/18 04:30:03;;;;;;;26.48;6.40;;;1.90;99.90;;;;;;5077358;28;20070;-74
2021/03/18 04:32:29;;;;;;;11.82;4.90;;;2.00;99.90;;;;;;5073656;28;20035;-74
2021/03/18 04:34:57;;;;;;;16.42;5.57;;;2.10;99.90;;;;;;5076925;28;20067;-75
2021/03/18 04:37:24;;;;;;;11.70;5.22;;;2.10;99.90;;;;;;5075619;28;21126;-74
2021/03/18 04:39:51;;;;;;;23.70;5.40;;;2.20;99.90;;;;;;5076987;28;20029;-74
2021/03/18 04:42:17;;;;;;;11.25;4.35;;;2.20;99.90;;;;;;5077084;28;20017;-75
2021/03/18 04:44:44;;;;;;;10.70;4.63;;;2.20;99.90;;;;;;5074291;28;20070;-74
2021/03/18 04:47:10;;;;;;;18.38;5.95;;;2.20;99.90;;;;;;5076557;28;20567;-74
2021/03/18 04:49:40;;;;;;;8.38;4.60;;;2.30;99.90;;;;;;5075164;28;20029;-74
2021/03/18 04:52:06;;;;;;;19.33;5.43;;;2.30;99.90;;;;;;5072702;28;20025;-75
2021/03/18 04:54:32;;;;;;;10.88;4.88;;;2.30;99.90;;;;;;5076578;28;20075;-74
2021/03/18 04:56:59;;;;;;;13.80;6.32;;;2.40;99.90;;;;;;5078576;28;20082;-74
2021/03/18 04:59:25;;;;;;;10.07;4.68;;;2.40;99.90;;;;;;5075365;28;20024;-76
2021/03/18 05:01:53;;;;;;;12.85;5.43;;;2.40;99.90;;;;;;5075984;28;20020;-74
2021/03/18 05:04:20;;;;;;;17.95;7.13;;;2.40;99.90;;;;;;5078014;28;20052;-73
2021/03/18 05:06:54;;;;;;;9.93;4.65;;;2.40;99.90;;;;;;5073663;28;20029;-74
2021/03/18 05:09:23;;;;;;;14.35;5.57;;;2.40;99.90;;;;;;5077429;28;20476;-74
2021/03/18 05:11:54;;;;;;;12.82;5.47;;;2.40;99.90;;;;;;5074294;28;20033;-74
2021/03/18 05:14:21;;;;;;;13.35;5.78;;;2.40;99.90;;;;;;5072983;28;20059;-74
2021/03/18 05:16:49;;;;;;;14.07;5.65;;;2.40;99.90;;;;;;5074904;28;20482;-74
2021/03/18 05:19:15;;;;;;;10.60;4.65;;;2.40;99.90;;;;;;5073721;28;20078;-74
2021/03/18 05:21:44;;;;;;;14.02;5.10;;;2.30;99.90;;;;;;5075318;28;20029;-73
2021/03/18 05:24:11;;;;;;;13.73;5.53;;;2.30;99.90;;;;;;5077446;28;20059;-75
2021/03/18 05:26:37;;;;;;;14.82;5.53;;;2.30;99.90;;;;;;5080142;28;20029;-74
2021/03/18 05:29:04;;;;;;;37.95;7.18;;;2.30;99.90;;;;;;5072467;28;20052;-74
2021/03/18 05:31:31;;;;;;;9.65;4.75;;;2.30;99.90;;;;;;5078489;28;20028;-75
2021/03/18 05:33:59;;;;;;;14.77;5.30;;;2.30;99.90;;;;;;5078755;28;20062;-74
2021/03/18 05:36:25;;;;;;;10.63;4.82;;;2.30;99.90;;;;;;5076434;28;20040;-74
2021/03/18 05:38:50;;;;;;;14.57;5.55;;;2.30;99.90;;;;;;5072506;28;20108;-75
2021/03/18 05:41:17;;;;;;;24.60;8.45;;;2.30;99.90;;;;;;5077186;28;20017;-76
2021/03/18 05:43:44;;;;;;;24.70;6.22;;;2.30;99.90;;;;;;5075497;28;20040;-75
2021/03/18 05:46:09;;;;;;;16.08;6.45;;;2.30;99.90;;;;;;5076091;28;20034;-74
2021/03/18 05:48:36;;;;;;;18.50;6.03;;;2.30;99.90;;;;;;5074601;28;20112;-77
2021/03/18 05:51:06;;;;;;;20.10;7.13;;;2.40;99.90;;;;;;5099491;28;20037;-74
2021/03/18 05:53:33;;;;;;;18.13;5.15;;;2.40;99.90;;;;;;5071440;28;20032;-74
2021/03/18 05:56:00;;;;;;;14.40;5.07;;;2.40;99.90;;;;;;5080969;28;20028;-76
2021/03/18 05:58:26;;;;;;;17.80;5.18;;;2.40;99.90;;;;;;5076438;28;20025;-74
2021/03/18 06:00:53;;;;;;;13.80;5.57;;;2.40;99.90;;;;;;5076613;28;20032;-74
2021/03/18 06:03:19;;;;;;;12.30;4.05;;;2.50;99.90;;;;;;5074225;28;20099;-74
2021/03/18 06:05:47;;;;;;;22.30;5.78;;;2.50;99.90;;;;;;5076749;28;20107;-75
2021/03/18 06:08:13;;;;;;;16.25;5.75;;;2.50;99.90;;;;;;5077075;28;20112;-75
2021/03/18 06:10:39;;;;;;;22.85;7.65;;;2.50;99.90;;;;;;5075277;28;20025;-74
2021/03/18 06:13:06;;;;;;;17.33;6.22;;;2.60;99.90;;;;;;5069310;28;20405;-74
2021/03/18 06:15:32;;;;;;;15.77;6.53;;;2.60;99.90;;;;;;5076043;28;20458;-75
2021/03/18 06:18:00;;;;;;;14.57;5.55;;;2.60;99.90;;;;;;5076353;28;20044;-75
2021/03/18 06:20:31;;;;;;;19.50;6.97;;;2.60;99.90;;;;;;5073432;28;20117;-74
2021/03/18 06:23:00;;;;;;;13.32;5.50;;;2.60;99.90;;;;;;5109975;28;20070;-75
2021/03/18 06:25:33;;;;;;;37.20;6.75;;;2.70;99.90;;;;;;5079521;28;20052;-75
2021/03/18 06:28:15;;;;;;;12.55;5.75;;;2.70;99.90;;;;;;5075461;28;20068;-74
2021/03/18 06:30:54;;;;;;;12.85;5.75;;;2.70;99.90;;;;;;5080122;28;20029;-74
2021/03/18 06:33:23;;;;;;;16.77;6.43;;;2.70;99.90;;;;;;5079715;28;20368;-74
2021/03/18 06:35:49;;;;;;;16.60;4.90;;;2.70;99.90;;;;;;5076905;28;20109;-75
2021/03/18 06:38:15;;;;;;;15.10;5.10;;;2.80;99.90;;;;;;5078396;28;20036;-74
2021/03/18 06:40:46;;;;;;;12.30;4.32;;;2.80;99.90;;;;;;5078777;28;20024;-74
2021/03/18 06:43:12;;;;;;;11.57;3.72;;;2.80;99.90;;;;;;5078846;28;20080;-74
2021/03/18 06:45:42;;;;;;;11.65;4.25;;;2.70;99.90;;;;;;5075856;28;20073;-76
2021/03/18 06:48:13;;;;;;;10.07;4.05;;;2.70;99.90;;;;;;5076070;28;20033;-75
2021/03/18 06:50:47;;;;;;;13.43;5.53;;;2.70;99.90;;;;;;5074067;28;20105;-74
2021/03/18 06:53:31;;;;;;;18.23;5.22;;;2.70;99.90;;;;;;5079937;28;20024;-74
2021/03/18 06:55:57;;;;;;;18.60;5.50;;;2.80;99.90;;;;;;5079459;28;20043;-73
2021/03/18 06:58:28;;;;;;;17.83;5.57;;;2.90;99.90;;;;;;5075198;28;20039;-73
2021/03/18 07:00:59;;;;;;;12.05;5.28;;;2.90;99.90;;;;;;5078688;28;20088;-73
2021/03/18 07:03:34;;;;;;;15.70;5.55;;;3.00;99.90;;;;;;5077240;28;20048;-74
2021/03/18 07:06:29;;;;;;;16.30;5.85;;;3.00;99.90;;;;;;5083542;28;20100;-75
2021/03/18 07:09:20;;;;;;;9.80;4.65;;;3.10;99.90;;;;;;5080770;28;20421;-73
2021/03/18 07:11:47;;;;;;;18.67;6.13;;;3.10;99.90;;;;;;5077123;28;20083;-73
2021/03/18 07:14:13;;;;;;;13.43;5.20;;;3.20;99.90;;;;;;5076661;28;20024;-74
2021/03/18 07:16:44;;;;;;;17.67;6.00;;;3.20;99.90;;;;;;5077872;28;20044;-73
2021/03/18 07:19:23;;;;;;;14.30;4.82;;;3.20;99.90;;;;;;5076850;28;20036;-75
2021/03/18 07:21:50;;;;;;;12.88;4.88;;;3.30;99.90;;;;;;5079531;28;20059;-73
2021/03/18 07:24:28;;;;;;;18.17;5.45;;;3.30;99.90;;;;;;5075737;28;20036;-74
2021/03/18 07:26:55;;;;;;;19.30;6.25;;;3.40;99.90;;;;;;5075538;28;20024;-74
2021/03/18 07:29:26;;;;;;;11.73;5.85;;;3.40;99.90;;;;;;5079286;28;20031;-73
2021/03/18 07:31:53;;;;;;;19.85;5.53;;;3.50;99.90;;;;;;5078175;28;20029;-73
2021/03/18 07:34:20;;;;;;;18.58;4.07;;;3.50;99.90;;;;;;5074200;28;20021;-73
2021/03/18 07:36:46;;;;;;;16.55;6.22;;;3.60;99.90;;;;;;5081329;28;20029;-73
2021/03/18 07:39:13;;;;;;;15.27;6.50;;;3.60;99.90;;;;;;5075022;28;20029;-73
2021/03/18 07:41:39;;;;;;;9.70;4.43;;;3.70;99.90;;;;;;5077113;28;20047;-74
2021/03/18 07:44:06;;;;;;;20.73;6.03;;;3.70;99.90;;;;;;5076010;28;20028;-74
2021/03/18 07:46:36;;;;;;;17.95;4.63;;;3.80;99.90;;;;;;5078322;28;20041;-74
2021/03/18 07:49:11;;;;;;;12.45;4.85;;;3.80;99.90;;;;;;5076650;28;20021;-73
2021/03/18 07:51:39;;;;;;;17.42;4.95;;;3.90;99.90;;;;;;5073075;28;20053;-73
2021/03/18 07:54:11;;;;;;;17.23;4.25;;;3.90;99.90;;;;;;5074021;28;20074;-76
2021/03/18 07:56:37;;;;;;;9.82;4.00;;;4.00;99.90;;;;;;5080080;28;20476;-74
2021/03/18 07:59:07;;;;;;;15.93;3.63;;;3.90;99.90;;;;;;5085617;28;20051;-74
2021/03/18 08:01:34;;;;;;;10.07;3.80;;;3.90;99.90;;;;;;5085663;28;20035;-73
2021/03/18 08:04:09;;;;;;;15.32;6.00;;;4.00;99.90;;;;;;5081840;28;20052;-75
2021/03/18 08:06:40;;;;;;;17.15;5.80;;;4.30;99.90;;;;;;5069885;28;20029;-75
2021/03/18 08:09:24;;;;;;;9.68;4.18;;;4.30;99.90;;;;;;5088758;28;20037;-72
2021/03/18 08:11:50;;;;;;;10.77;4.32;;;4.40;99.90;;;;;;5085323;28;20029;-72
2021/03/18 08:14:24;;;;;;;12.13;4.38;;;4.50;99.90;;;;;;5084759;28;20103;-73
2021/03/18 08:16:51;;;;;;;12.32;2.95;;;4.50;99.90;;;;;;5085285;28;20404;-73
2021/03/18 08:19:40;;;;;;;21.70;5.63;;;4.50;99.90;;;;;;5083162;28;20103;-73
2021/03/18 08:22:29;;;;;;;19.52;5.13;;;4.40;99.90;;;;;;5083611;28;20127;-74
2021/03/18 08:25:24;;;;;;;12.32;4.15;;;4.40;99.90;;;;;;5084593;28;20028;-72
2021/03/18 08:27:49;;;;;;;14.68;4.47;;;4.40;99.90;;;;;;5085383;28;20024;-73
2021/03/18 08:30:24;;;;;;;16.48;4.60;;;4.30;99.90;;;;;;5083751;28;20028;-73
2021/03/18 08:32:49;;;;;;;20.50;5.53;;;4.30;99.90;;;;;;5084908;28;20611;-72
2021/03/18 08:35:29;;;;;;;16.08;4.88;;;4.30;99.90;;;;;;5084964;28;20035;-73
2021/03/18 08:38:13;;;;;;;14.50;5.25;;;4.40;99.90;;;;;;5085171;28;20058;-72
2021/03/18 08:40:38;;;;;;;9.13;3.95;;;4.50;99.90;;;;;;5084996;28;20032;-72
2021/03/18 08:43:08;;;;;;;21.85;5.35;;;4.40;99.90;;;;;;5084568;28;20024;-74
2021/03/18 08:45:37;;;;;;;14.60;4.53;;;4.70;99.90;;;;;;5069937;28;20048;-75
2021/03/18 08:48:13;;;;;;;11.88;4.85;;;4.60;99.90;;;;;;5063517;28;20033;-74
2021/03/18 08:50:38;;;;;;;10.85;4.07;;;4.80;99.90;;;;;;5067658;28;20055;-74
2021/03/18 08:53:25;;;;;;;11.65;4.80;;;5.00;99.90;;;;;;5080362;28;20021;-75
2021/03/18 08:55:51;;;;;;;21.67;5.07;;;5.20;99.90;;;;;;5076353;28;20076;-73
2021/03/18 08:58:16;;;;;;;8.65;4.18;;;5.20;99.90;;;;;;5084034;28;20032;-74
2021/03/18 09:00:47;;;;;;;14.07;4.78;;;5.30;99.90;;;;;;5071582;28;20025;-73
2021/03/18 09:03:20;;;;;;;13.13;4.60;;;5.40;99.90;;;;;;5063815;28;20028;-73
2021/03/18 09:05:58;;;;;;;10.73;4.00;;;5.60;99.90;;;;;;5063100;28;20025;-72
2021/03/18 09:08:30;;;;;;;12.45;5.32;;;5.60;99.90;;;;;;5064610;28;20033;-74
2021/03/18 09:10:58;;;;;;;16.55;5.22;;;5.90;99.90;;;;;;5064353;28;20036;-73
2021/03/18 09:13:24;;;;;;;12.88;3.75;;;5.80;99.90;;;;;;5064006;28;20055;-74
2021/03/18 09:15:53;;;;;;;14.77;5.78;;;5.90;99.90;;;;;;5064192;28;20099;-74
2021/03/18 09:18:20;;;;;;;9.80;4.50;;;6.00;99.90;;;;;;5063857;28;20040;-74
2021/03/18 09:20:57;;;;;;;14.07;4.03;;;6.20;99.90;;;;;;5064111;28;20156;-74
2021/03/18 09:23:25;;;;;;;15.32;4.68;;;6.20;99.90;;;;;;5062801;28;20058;-73
2021/03/18 09:25:53;;;;;;;7.88;3.35;;;6.40;99.90;;;;;;5064060;28;20021;-74
2021/03/18 09:28:19;;;;;;;8.40;4.60;;;6.70;99.90;;;;;;5063715;28;20033;-73
2021/03/18 09:30:46;;;;;;;14.82;4.53;;;6.80;99.90;;;;;;5063634;28;20051;-73
2021/03/18 09:33:18;;;;;;;10.68;4.85;;;7.00;99.90;;;;;;5064170;28;20028;-73
2021/03/18 09:35:43;;;;;;;8.82;4.10;;;7.10;99.90;;;;;;5062402;28;20136;-73
2021/03/18 09:38:18;;;;;;;8.98;4.07;;;7.20;99.90;;;;;;5064422;28;20029;-73
2021/03/18 09:40:45;;;;;;;11.48;4.57;;;7.40;99.90;;;;;;5064365;28;20037;-73
2021/03/18 09:43:10;;;;;;;9.13;3.20;;;7.50;99.90;;;;;;5063956;28;20021;-73
2021/03/18 09:45:36;;;;;;;10.10;4.35;;;7.70;99.90;;;;;;5068922;28;20054;-74
2021/03/18 09:48:03;;;;;;;10.75;4.75;;;7.70;99.90;;;;;;5076179;28;20036;-73
2021/03/18 09:50:32;;;;;;;9.38;4.25;;;7.80;99.90;;;;;;5064340;28;20056;-74
2021/03/18 09:53:06;;;;;;;6.50;3.55;;;7.80;99.90;;;;;;5064236;28;20025;-74
2021/03/18 09:55:32;;;;;;;8.40;3.97;;;7.80;99.90;;;;;;5072928;28;20029;-73
2021/03/18 09:58:10;;;;;;;11.05;4.18;;;7.90;99.90;;;;;;5071450;28;20120;-74
2021/03/18 10:00:36;;;;;;;8.70;4.07;;;7.90;99.90;;;;;;5067866;28;20083;-73
2021/03/18 10:03:04;;;;;;;9.55;3.38;;;8.10;99.90;;;;;;5068178;28;20033;-72
2021/03/18 10:05:30;;;;;;;6.45;2.92;;;8.30;99.90;;;;;;5068044;28;20085;-73
2021/03/18 10:07:56;;;;;;;6.22;3.05;;;8.50;99.90;;;;;;5066926;28;20156;-73
2021/03/18 10:10:23;;;;;;;4.18;2.22;;;8.50;99.90;;;;;;5067785;28;20067;-73
2021/03/18 10:12:50;;;;;;;8.20;3.13;;;8.60;99.90;;;;;;5067699;28;20585;-72
2021/03/18 10:15:17;;;;;;;6.25;3.30;;;8.50;99.90;;;;;;5073457;28;20029;-72
2021/03/18 10:17:44;;;;;;;15.43;3.13;;;8.40;99.90;;;;;;5092158;28;20025;-74
2021/03/18 10:20:25;;;;;;;7.80;4.20;;;8.40;99.90;;;;;;5087724;28;20021;-75
2021/03/18 10:23:05;;;;;;;5.25;2.67;;;8.40;99.90;;;;;;5085998;28;20028;-75
2021/03/18 10:25:38;;;;;;;4.28;2.22;;;8.50;99.90;;;;;;5087115;28;20047;-75
2021/03/18 10:28:10;;;;;;;6.03;2.88;;;8.60;99.90;;;;;;5084251;28;20029;-74
2021/03/18 10:30:44;;;;;;;5.90;3.08;;;8.70;99.90;;;;;;5086224;28;20032;-75
2021/03/18 10:33:17;;;;;;;3.53;2.08;;;9.00;99.90;;;;;;5069214;28;20028;-74
2021/03/18 10:35:45;;;;;;;7.70;2.40;;;9.10;99.90;;;;;;5067250;28;20033;-74
2021/03/18 10:38:15;;;;;;;3.95;2.03;;;9.30;99.90;;;;;;5086698;28;20021;-74
2021/03/18 10:40:46;;;;;;;4.93;2.33;;;9.60;99.90;;;;;;5086142;28;20489;-73
2021/03/18 10:43:29;;;;;;;5.25;3.08;;;10.00;99.90;;;;;;5084807;28;20017;-73
2021/03/18 10:46:06;;;;;;;6.70;2.38;;;10.30;99.90;;;;;;5066150;28;20028;-74
2021/03/18 10:48:36;;;;;;;5.65;2.58;;;10.60;99.90;;;;;;5066078;28;20104;-74
2021/03/18 10:51:12;;;;;;;3.45;2.03;;;10.80;99.90;;;;;;5066860;28;20389;-75
2021/03/18 10:53:39;;;;;;;3.35;2.25;;;10.90;99.90;;;;;;5066805;28;20033;-74
2021/03/18 10:56:09;;;;;;;4.15;1.88;;;10.30;99.90;;;;;;5066594;28;20112;-74
2021/03/18 10:58:37;;;;;;;3.65;2.47;;;10.00;99.90;;;;;;5078383;28;20039;-73
2021/03/18 11:01:08;;;;;;;4.03;2.22;;;9.80;99.90;;;;;;5086584;28;20128;-74
2021/03/18 11:03:37;;;;;;;3.17;2.15;;;9.50;99.90;;;;;;5086501;28;20512;-73
2021/03/18 11:06:19;;;;;;;5.53;2.70;;;9.30;99.90;;;;;;5085279;28;20025;-73
2021/03/18 11:08:53;;;;;;;4.88;2.50;;;9.10;99.90;;;;;;5084604;28;20043;-73
2021/03/18 11:11:24;;;;;;;5.85;2.35;;;8.80;99.90;;;;;;5085068;28;20023;-74
2021/03/18 11:13:51;;;;;;;4.53;2.05;;;8.30;99.90;;;;;;5086218;28;20466;-73
2021/03/18 11:16:24;;;;;;;2.78;1.70;;;8.00;99.90;;;;;;5081577;28;20056;-73
2021/03/18 11:18:55;;;;;;;2.95;1.70;;;7.70;99.90;;;;;;5066113;28;20037;-74
2021/03/18 11:21:32;;;;;;;6.82;2.72;;;7.50;99.90;;;;;;5066132;28;20082;-74
2021/03/18 11:24:07;;;;;;;5.70;2.42;;;7.20;99.90;;;;;;5066274;28;20047;-73
2021/03/18 11:26:35;;;;;;;3.17;2.35;;;7.10;99.90;;;;;;5066174;28;20433;-74
2021/03/18 11:29:09;;;;;;;7.47;3.47;;;7.10;99.90;;;;;;5066189;28;20032;-75
2021/03/18 11:31:36;;;;;;;;;;;7.10;99.90;;;;;;5065198;28;20039;-74
2021/03/18 11:34:16;;;;;;;4.10;2.33;;;7.20;99.90;;;;;;5066332;28;19943;-73
2021/03/18 11:36:43;;;;;;;3.90;1.75;;;7.20;99.90;;;;;;5066140;28;20098;-74
2021/03/18 11:39:08;;;;;;;5.15;2.85;;;7.30;99.90;;;;;;5084984;28;20436;-74
2021/03/18 11:41:36;;;;;;;3.55;2.28;;;7.20;99.90;;;;;;5065707;28;20138;-76
2021/03/18 11:44:05;;;;;;;3.28;1.92;;;7.20;99.90;;;;;;5080393;28;20037;-74
2021/03/18 11:46:32;;;;;;;3.90;2.17;;;7.20;99.90;;;;;;5065291;28;20152;-74
2021/03/18 11:48:58;;;;;;;3.97;1.88;;;7.20;99.90;;;;;;5080423;28;20116;-75
2021/03/18 11:51:23;;;;;;;5.80;2.47;;;7.30;99.90;;;;;;5083828;28;20134;-72
2021/03/18 11:53:50;;;;;;;8.23;1.98;;;7.40;99.90;;;;;;5084972;28;20036;-72
2021/03/18 11:56:17;;;;;;;5.10;2.03;;;7.40;99.90;;;;;;5084942;28;20120;-72
2021/03/18 11:58:42;;;;;;;3.00;1.90;;;7.50;99.90;;;;;;5085266;28;20024;-73
2021/03/18 12:01:08;;;;;;;3.55;2.08;;;7.40;99.90;;;;;;5085021;28;20096;-73
2021/03/18 12:03:36;;;;;;;3.50;1.73;;;7.40;99.90;;;;;;5084905;28;20032;-74
2021/03/18 12:06:02;;;;;;;3.65;2.10;;;7.50;99.90;;;;;;5084884;28;20028;-73
2021/03/18 12:08:31;;;;;;;3.55;1.63;;;7.50;99.90;;;;;;5083602;28;20029;-74
2021/03/18 12:10:58;;;;;;;4.40;2.15;;;7.50;99.90;;;;;;5083602;28;20039;-72
2021/03/18 12:13:24;;;;;;;5.95;2.83;;;7.70;99.90;;;;;;5084721;28;20078;-73
2021/03/18 12:15:50;;;;;;;3.85;2.03;;;7.70;99.90;;;;;;5083641;28;20029;-73
2021/03/18 12:18:17;;;;;;;3.38;1.70;;;7.70;99.90;;;;;;5083423;28;20025;-73
2021/03/18 12:20:43;;;;;;;2.70;1.60;;;7.60;99.90;;;;;;5083555;28;20084;-73
2021/03/18 12:23:09;;;;;;;3.88;1.92;;;7.60;99.90;;;;;;5084908;28;20024;-74
2021/03/18 12:25:35;;;;;;;5.30;1.42;;;7.50;99.90;;;;;;5084783;28;20036;-73
2021/03/18 12:28:01;;;;;;;4.90;1.70;;;7.50;99.90;;;;;;5084425;28;20028;-73
2021/03/18 12:30:27;;;;;;;4.35;2.00;;;7.50;99.90;;;;;;5084877;28;20094;-72
2021/03/18 12:32:53;;;;;;;3.42;1.65;;;7.50;99.90;;;;;;5084929;28;20032;-74
2021/03/18 12:35:21;;;;;;;3.85;2.10;;;7.40;99.90;;;;;;5063267;28;20041;-72
2021/03/18 12:37:48;;;;;;;5.00;1.95;;;7.40;99.90;;;;;;5063396;28;20021;-74
2021/03/18 12:40:14;;;;;;;6.35;2.28;;;7.40;99.90;;;;;;5064660;28;20080;-73
2021/03/18 12:42:41;;;;;;;3.15;1.80;;;7.40;99.90;;;;;;5064660;28;20477;-74
2021/03/18 12:45:09;;;;;;;5.05;2.35;;;7.40;99.90;;;;;;5064697;28;20103;-74
2021/03/18 12:47:35;;;;;;;3.38;1.95;;;7.40;99.90;;;;;;5064473;28;20017;-74
2021/03/18 12:50:05;;;;;;;3.75;2.17;;;7.40;99.90;;;;;;5064702;28;20089;-75
2021/03/18 12:52:36;;;;;;;5.05;1.55;;;7.50;99.90;;;;;;5062786;28;20078;-75
2021/03/18 12:55:03;;;;;;;2.35;1.42;;;7.50;99.90;;;;;;5063823;28;20029;-73
2021/03/18 12:57:30;;;;;;;2.53;1.00;;;7.50;99.90;;;;;;5064417;28;20371;-74
2021/03/18 12:59:55;;;;;;;2.03;1.20;;;7.50;99.90;;;;;;5064265;28;20033;-73
2021/03/18 13:02:21;;;;;;;1.50;0.98;;;7.60;99.90;;;;;;5062848;28;20120;-73